Time;durP1;ratioP1;P1;durP2;ratioP2;P2;SDS_P1;SDS_P2;PMS_P1;PMS_P2;Temp;Humidity;BMP_temperature;BMP_pressure;BME280_temperature;BME280_humidity;BME280_pressure;Samples;Min_cycle;Max_cycle;Signal;HPM_P1;HPM_P2
2022/04/17 00:00:00;;;;;;;7.20;1.90;;;;;;;9.59;33.07;99559.63;4425022;32;20109;-92
2022/04/17 00:02:26;;;;;;;6.07;1.98;;;;;;;9.58;33.31;99550.06;4439982;32;20101;-93
2022/04/17 00:04:52;;;;;;;7.30;2.10;;;;;;;9.68;33.09;99561.06;4427240;32;20342;-92
2022/04/17 00:07:18;;;;;;;6.43;2.00;;;;;;;9.63;31.75;99568.28;4427312;32;20120;-93
2022/04/17 00:09:44;;;;;;;7.65;2.30;;;;;;;9.66;31.50;99547.12;4414472;32;20408;-93
2022/04/17 00:12:10;;;;;;;24.27;11.68;;;;;;;9.61;31.46;99559.59;4427314;32;20102;-92
2022/04/17 00:14:36;;;;;;;22.30;11.07;;;;;;;9.44;31.44;99553.22;4441195;32;20081;-92
2022/04/17 00:17:02;;;;;;;23.87;10.23;;;;;;;9.62;31.72;99550.78;4441080;32;20105;-92
2022/04/17 00:19:27;;;;;;;24.58;11.68;;;;;;;9.53;31.52;99556.41;4441151;32;20369;-93
2022/04/17 00:21:53;;;;;;;25.67;11.27;;;;;;;9.23;31.59;99549.59;4441042;32;20081;-91
2022/04/17 00:24:18;;;;;;;19.60;7.97;;;;;;;9.68;31.57;99547.94;4441015;32;20771;-92
2022/04/17 00:26:44;;;;;;;22.00;9.48;;;;;;;9.88;31.35;99535.75;4441140;32;20130;-93
2022/04/17 00:29:09;;;;;;;21.60;8.13;;;;;;;9.76;31.21;99534.47;4440932;32;20120;-94
2022/04/17 00:31:34;;;;;;;16.00;6.37;;;;;;;9.95;31.11;99537.25;4426971;32;20405;-92
2022/04/17 00:34:00;;;;;;;15.77;5.70;;;;;;;9.97;31.02;99551.19;4440934;32;20149;-93
2022/04/17 00:36:25;;;;;;;17.60;6.53;;;;;;;9.96;31.23;99525.78;4440933;32;20577;-93
2022/04/17 00:38:51;;;;;;;18.20;5.65;;;;;;;10.04;31.05;99526.31;4440891;32;20081;-91
2022/04/17 00:41:16;;;;;;;17.65;6.65;;;;;;;9.97;30.90;99538.88;4440895;32;20139;-92
2022/04/17 00:43:46;;;;;;;23.58;7.12;;;;;;;9.80;31.00;99536.91;4440802;32;20081;-93
2022/04/17 00:46:12;;;;;;;15.93;6.03;;;;;;;9.84;30.76;99540.28;4440912;32;20129;-92
2022/04/17 00:48:37;;;;;;;16.98;5.32;;;;;;;9.82;30.89;99537.69;4426947;32;20097;-92
2022/04/17 00:51:03;;;;;;;14.18;4.85;;;;;;;9.80;30.93;99528.16;4440886;32;20365;-92
2022/04/17 00:53:29;;;;;;;18.20;6.03;;;;;;;9.97;30.56;99535.41;4426880;32;20130;-93
2022/04/17 00:55:55;;;;;;;13.60;3.72;;;;;;;9.79;30.54;99535.22;4427000;32;20101;-93
2022/04/17 00:58:20;;;;;;;12.80;4.10;;;;;;;9.49;30.49;99539.88;4426915;32;20128;-92
2022/04/17 01:00:46;;;;;;;14.55;4.95;;;;;;;9.60;30.94;99531.56;4440862;32;20090;-93
2022/04/17 01:03:12;;;;;;;10.80;3.30;;;;;;;9.70;30.78;99527.66;4426750;32;20456;-93
2022/04/17 01:05:41;;;;;;;12.15;4.25;;;;;;;9.22;31.23;99529.47;4426927;32;20161;-92
2022/04/17 01:08:08;;;;;;;12.95;3.67;;;;;;;9.31;31.18;99514.25;4427366;32;20112;-93
2022/04/17 01:10:33;;;;;;;11.30;3.42;;;;;;;9.41;30.82;99516.50;4426916;32;20085;-93
2022/04/17 01:12:59;;;;;;;8.35;2.70;;;;;;;9.57;30.36;99516.75;4440157;32;20144;-92
2022/04/17 01:15:25;;;;;;;7.62;2.50;;;;;;;9.66;30.57;99515.56;4426462;32;20128;-93
2022/04/17 01:17:50;;;;;;;10.15;2.75;;;;;;;9.54;30.78;99516.91;4440745;32;20409;-93
2022/04/17 01:20:16;;;;;;;11.43;3.05;;;;;;;9.68;31.11;99508.47;4440690;32;20456;-93
2022/04/17 01:22:49;;;;;;;14.98;4.62;;;;;;;9.65;30.88;99504.16;4426653;32;20078;-92
2022/04/17 01:28:01;;;;;;;8.45;2.30;;;;;;;9.79;30.46;99513.28;4440653;32;20543;-92
2022/04/17 01:30:26;;;;;;;6.47;2.00;;;;;;;9.79;30.34;99501.00;4440640;32;20158;-93
2022/04/17 01:32:52;;;;;;;4.62;1.52;;;;;;;9.71;30.03;99513.59;4426695;32;20108;-92
2022/04/17 01:35:17;;;;;;;4.53;1.42;;;;;;;9.45;30.62;99518.09;4426527;32;20102;-92
2022/04/17 01:37:47;;;;;;;4.20;1.58;;;;;;;9.26;30.69;99522.34;4440373;32;20107;-92
2022/04/17 01:40:12;;;;;;;4.90;1.70;;;;;;;9.21;30.77;99517.25;4440599;32;20093;-92
2022/04/17 01:42:37;;;;;;;5.40;1.58;;;;;;;9.17;30.80;99510.38;4426545;32;20424;-92
2022/04/17 01:45:03;;;;;;;6.07;1.70;;;;;;;9.34;31.04;99522.03;4440514;32;20089;-92
2022/04/17 01:47:30;;;;;;;8.10;1.48;;;;;;;9.13;31.15;99510.56;4426851;32;20098;-92
2022/04/17 01:49:56;;;;;;;5.20;1.50;;;;;;;9.17;31.37;99509.53;4440867;32;20149;-92
2022/04/17 01:52:21;;;;;;;4.90;1.60;;;;;;;8.89;31.43;99525.47;4426900;32;20439;-92
2022/04/17 01:54:47;;;;;;;4.50;1.67;;;;;;;8.97;31.36;99505.00;4426767;32;20098;-93
2022/04/17 01:57:12;;;;;;;4.20;1.40;;;;;;;9.10;31.28;99505.41;4440483;32;20108;-92
2022/04/17 01:59:38;;;;;;;6.28;1.58;;;;;;;8.88;31.52;99506.19;4440441;32;20425;-92
2022/04/17 02:02:04;;;;;;;4.32;1.50;;;;;;;8.92;31.68;99518.31;4426495;32;20081;-92
2022/04/17 02:04:35;;;;;;;3.83;1.60;;;;;;;8.84;31.32;99512.47;4426455;32;20433;-93
2022/04/17 02:07:00;;;;;;;5.35;1.50;;;;;;;9.05;31.38;99506.44;4427139;32;20094;-92
2022/04/17 02:09:26;;;;;;;5.53;1.50;;;;;;;9.03;31.17;99500.38;4426402;32;20411;-92
2022/04/17 02:11:53;;;;;;;4.35;1.50;;;;;;;8.96;31.74;99503.28;4440349;32;20117;-92
2022/04/17 02:14:19;;;;;;;3.95;1.45;;;;;;;9.07;31.23;99506.37;4440486;32;20090;-92
2022/04/17 02:16:45;;;;;;;3.62;1.23;;;;;;;9.27;30.72;99497.75;4426837;32;20093;-93
2022/04/17 02:19:11;;;;;;;6.00;1.55;;;;;;;9.35;30.73;99497.44;4440651;32;20097;-92
2022/04/17 02:21:37;;;;;;;3.87;1.42;;;;;;;9.24;30.95;99493.47;4440633;32;20373;-93
2022/04/17 02:24:03;;;;;;;3.80;1.37;;;;;;;9.32;30.47;99500.22;4440164;32;20433;-92
2022/04/17 02:26:29;;;;;;;4.95;1.37;;;;;;;9.29;30.26;99500.31;4440273;32;20161;-92
2022/04/17 02:28:58;;;;;;;3.40;1.27;;;;;;;9.04;30.30;99496.00;4440353;32;20409;-93
2022/04/17 02:31:24;;;;;;;4.03;1.50;;;;;;;9.07;30.40;99495.88;4426544;32;20158;-92
2022/04/17 02:33:50;;;;;;;7.22;1.70;;;;;;;9.13;30.55;99493.00;4426557;32;20429;-93
2022/04/17 02:36:15;;;;;;;4.12;1.35;;;;;;;8.73;31.02;99502.38;4426662;32;20124;-92
2022/04/17 02:38:41;;;;;;;4.55;1.40;;;;;;;8.31;31.33;99508.16;4423508;32;20137;-92
2022/04/17 02:41:06;;;;;;;5.32;1.37;;;;;;;8.38;30.60;99495.66;4423547;32;20089;-92
2022/04/17 02:43:32;;;;;;;4.20;1.40;;;;;;;8.43;30.93;99491.16;4423424;32;20137;-92
2022/04/17 02:45:57;;;;;;;3.78;1.58;;;;;;;8.50;30.88;99490.03;4423529;32;20151;-92
2022/04/17 02:48:23;;;;;;;3.87;1.50;;;;;;;8.58;31.12;99484.53;4424762;32;20374;-92
2022/04/17 02:50:49;;;;;;;3.60;1.35;;;;;;;8.59;31.15;99484.44;4424730;32;20349;-92
2022/04/17 02:53:15;;;;;;;4.37;1.40;;;;;;;8.45;31.02;99478.81;4424666;32;20113;-92
2022/04/17 02:55:41;;;;;;;4.20;1.20;;;;;;;7.98;31.31;99487.38;4423411;32;20132;-92
2022/04/17 02:58:06;;;;;;;4.00;1.33;;;;;;;8.30;31.11;99480.16;4410674;32;20366;-92
2022/04/17 03:00:31;;;;;;;4.50;1.30;;;;;;;8.36;31.29;99479.97;4424490;32;20085;-92
2022/04/17 03:05:42;;;;;;;4.35;1.30;;;;;;;8.04;31.14;99476.66;4424588;32;20115;-93
2022/04/17 03:08:14;;;;;;;6.82;1.40;;;;;;;7.96;31.33;99488.31;4423239;32;20090;-91
2022/04/17 03:10:41;;;;;;;4.93;1.42;;;;;;;8.14;31.32;99484.25;4424556;32;20112;-92
2022/04/17 03:13:07;;;;;;;4.33;1.40;;;;;;;8.02;31.25;99491.59;4423250;32;20164;-92
2022/04/17 03:15:34;;;;;;;4.70;1.45;;;;;;;7.86;31.93;99491.25;4423162;32;20186;-92
2022/04/17 03:17:59;;;;;;;4.80;1.50;;;;;;;8.13;31.37;99493.00;4424320;32;20093;-92
2022/04/17 03:20:26;;;;;;;2.85;1.20;;;;;;;8.03;31.76;99487.22;4424370;32;20108;-92
2022/04/17 03:22:51;;;;;;;4.95;1.45;;;;;;;8.03;31.25;99492.44;4422973;32;20148;-92
2022/04/17 03:25:17;;;;;;;6.40;1.58;;;;;;;7.75;31.66;99482.00;4424272;32;20488;-91
2022/04/17 03:27:45;;;;;;;5.60;1.62;;;;;;;7.82;31.46;99494.88;4423251;32;20102;-91
2022/04/17 03:30:10;;;;;;;;;;;;;;;7.84;31.14;99494.81;4424684;32;20437;-92
2022/04/17 03:32:35;;;;;;;5.20;1.40;;;;;;;7.76;31.54;99486.34;4423151;32;19988;-92
2022/04/17 03:35:02;;;;;;;6.97;1.60;;;;;;;7.86;31.44;99493.00;4424212;32;20379;-92
2022/04/17 03:37:27;;;;;;;3.58;1.30;;;;;;;7.86;31.70;99491.25;4423718;32;20077;-92
2022/04/17 03:39:53;;;;;;;5.62;1.40;;;;;;;7.37;32.40;99498.00;4426301;32;20104;-92
2022/04/17 03:42:21;;;;;;;5.07;1.40;;;;;;;7.43;32.05;99491.72;4426048;32;20094;-92
2022/04/17 03:44:47;;;;;;;4.43;1.33;;;;;;;7.45;32.11;99492.53;4425972;32;20164;-93
2022/04/17 03:47:12;;;;;;;5.85;1.52;;;;;;;7.40;32.13;99497.94;4426031;32;20094;-91
2022/04/17 03:49:38;;;;;;;4.50;1.42;;;;;;;7.52;31.69;99494.06;4424784;32;20090;-91
2022/04/17 03:52:04;;;;;;;4.28;1.33;;;;;;;7.48;31.78;99481.97;4425953;32;20094;-92
2022/04/17 03:54:30;;;;;;;5.15;1.33;;;;;;;7.58;32.04;99491.25;4425932;32;20109;-92
2022/04/17 03:56:56;;;;;;;4.55;1.33;;;;;;;7.60;31.71;99493.84;4424713;32;20141;-92
2022/04/17 03:59:21;;;;;;;3.37;1.20;;;;;;;7.46;31.91;99510.84;4425944;32;20133;-92
2022/04/17 04:01:46;;;;;;;5.32;1.50;;;;;;;7.60;31.87;99499.94;4424583;32;20401;-92
2022/04/17 04:04:14;;;;;;;4.80;1.55;;;;;;;7.56;31.94;99508.81;4424485;32;20154;-92
2022/04/17 04:06:40;;;;;;;6.05;1.60;;;;;;;7.63;31.92;99505.09;4425899;32;20121;-91
2022/04/17 04:09:05;;;;;;;5.80;1.70;;;;;;;7.64;32.14;99506.78;4425772;32;20196;-92
2022/04/17 04:11:31;;;;;;;4.40;1.45;;;;;;;7.74;31.60;99504.75;4425789;32;20113;-92
2022/04/17 04:13:56;;;;;;;3.70;1.35;;;;;;;7.68;31.66;99513.66;4425763;32;20097;-92
2022/04/17 04:16:22;;;;;;;5.40;1.70;;;;;;;7.67;31.92;99506.72;4424611;32;20109;-92
2022/04/17 04:18:47;;;;;;;4.18;1.35;;;;;;;7.96;31.51;99510.19;4424585;32;20393;-92
2022/04/17 04:21:13;;;;;;;4.47;1.67;;;;;;;7.80;31.52;99514.19;4424462;32;20133;-91
2022/04/17 04:23:40;;;;;;;5.50;1.58;;;;;;;8.10;31.23;99514.13;4425629;32;20110;-92
2022/04/17 04:26:05;;;;;;;5.10;1.58;;;;;;;8.18;31.28;99512.09;4424591;32;20478;-91
2022/04/17 04:28:34;;;;;;;5.47;1.40;;;;;;;8.28;31.47;99505.63;4426003;32;20062;-92
2022/04/17 04:31:10;;;;;;;5.40;1.45;;;;;;;8.34;30.90;99500.16;4424871;32;20130;-92
2022/04/17 04:33:37;;;;;;;4.40;1.55;;;;;;;8.54;31.01;99511.81;4424829;32;20124;-91
2022/04/17 04:36:05;;;;;;;4.03;1.48;;;;;;;8.51;30.29;99515.38;4426041;32;20561;-93
2022/04/17 04:38:30;;;;;;;4.12;1.52;;;;;;;8.45;30.58;99513.81;4411688;32;20124;-92
2022/04/17 04:40:56;;;;;;;5.55;1.73;;;;;;;8.22;31.21;99509.31;4424547;32;20125;-92
2022/04/17 04:43:22;;;;;;;4.93;1.40;;;;;;;8.48;30.39;99507.63;4424473;32;20097;-92
2022/04/17 04:51:15;;;;;;;4.60;1.40;;;;;;;8.82;30.20;99506.41;4424571;32;20121;-92
2022/04/17 04:53:41;;;;;;;5.12;1.60;;;;;;;8.65;30.36;99509.62;4425610;32;20101;-92
2022/04/17 04:56:07;;;;;;;3.83;1.50;;;;;;;8.94;30.18;99516.47;4424466;32;20097;-92
2022/04/17 04:58:32;;;;;;;7.93;1.73;;;;;;;8.95;30.00;99496.34;4425433;32;20109;-93
2022/04/17 05:00:58;;;;;;;4.28;1.65;;;;;;;8.95;29.52;99496.34;4425476;32;20110;-92
2022/04/17 05:03:25;;;;;;;5.53;1.80;;;;;;;9.07;29.72;99509.00;4425360;32;20150;-92
2022/04/17 05:05:53;;;;;;;6.70;1.80;;;;;;;8.88;30.19;99500.09;4425478;32;20097;-92
2022/04/17 05:08:19;;;;;;;4.82;1.60;;;;;;;8.87;29.83;99511.53;4424214;32;20454;-92
2022/04/17 05:10:45;;;;;;;4.75;1.42;;;;;;;8.98;29.37;99504.09;4425546;32;20124;-92
2022/04/17 05:13:10;;;;;;;5.80;1.37;;;;;;;9.07;29.60;99500.28;4424301;32;20609;-91
2022/04/17 05:15:36;;;;;;;4.93;1.70;;;;;;;9.14;29.71;99497.37;4425244;32;20111;-92
2022/04/17 05:18:02;;;;;;;5.00;1.67;;;;;;;9.04;29.62;99499.47;4425354;32;20143;-92
2022/04/17 05:20:27;;;;;;;5.72;1.75;;;;;;;9.27;30.11;99499.53;4424142;32;20102;-92
2022/04/17 05:22:56;;;;;;;4.47;1.60;;;;;;;9.37;29.42;99503.53;4425325;32;20147;-93
2022/04/17 05:25:25;;;;;;;4.80;1.67;;;;;;;9.55;29.64;99494.06;4425325;32;20461;-92
2022/04/17 05:27:50;;;;;;;7.85;2.17;;;;;;;9.65;29.29;99503.31;4425190;32;20167;-92
2022/04/17 05:30:16;;;;;;;4.10;1.58;;;;;;;9.69;28.88;99498.78;4425398;32;20093;-92
2022/04/17 05:32:41;;;;;;;6.15;1.90;;;;;;;9.88;29.02;99498.91;4424143;32;20113;-92
2022/04/17 05:35:07;;;;;;;6.55;1.73;;;;;;;9.60;28.57;99494.72;4425291;32;20112;-92
2022/04/17 05:37:32;;;;;;;5.12;1.70;;;;;;;9.64;29.02;99497.19;4430309;32;20421;-92
2022/04/17 05:39:57;;;;;;;5.05;1.50;;;;;;;9.54;28.76;99502.88;4440588;32;20450;-92
2022/04/17 05:42:23;;;;;;;6.28;1.60;;;;;;;9.38;29.01;99500.81;4440471;32;20092;-92
2022/04/17 05:44:49;;;;;;;5.50;1.60;;;;;;;9.70;29.00;99498.72;4426424;32;20111;-92
2022/04/17 05:47:15;;;;;;;5.87;1.98;;;;;;;9.77;28.74;99502.84;4426661;32;20506;-92
2022/04/17 05:49:40;;;;;;;4.15;1.33;;;;;;;9.75;29.04;99502.00;4440410;32;20105;-92
2022/04/17 05:52:06;;;;;;;6.00;1.65;;;;;;;9.99;29.13;99500.19;4426472;32;20146;-92
2022/04/17 05:54:32;;;;;;;5.35;1.60;;;;;;;10.07;28.46;99505.13;4440459;32;20117;-93
2022/04/17 05:56:57;;;;;;;5.03;1.60;;;;;;;10.20;28.76;99501.09;4440242;32;20331;-93
2022/04/17 05:59:24;;;;;;;6.10;1.80;;;;;;;10.27;28.72;99504.31;4440196;32;20131;-92
2022/04/17 06:01:49;;;;;;;4.43;1.50;;;;;;;10.50;28.34;99487.56;4440441;32;20089;-92
2022/04/17 06:04:15;;;;;;;6.28;1.83;;;;;;;10.48;28.33;99501.72;4440287;32;20115;-92
2022/04/17 06:06:40;;;;;;;5.18;1.80;;;;;;;10.26;27.53;99486.81;4440342;32;20085;-91
2022/04/17 06:09:06;;;;;;;5.65;1.70;;;;;;;10.00;28.73;99507.16;4440198;32;20437;-92
2022/04/17 06:11:31;;;;;;;5.47;1.60;;;;;;;10.30;28.69;99503.34;4440355;32;20120;-92
2022/04/17 06:13:57;;;;;;;4.40;1.42;;;;;;;10.58;28.34;99500.41;4426314;32;20116;-91
2022/04/17 06:16:22;;;;;;;4.68;1.73;;;;;;;10.46;28.13;99503.56;4426369;32;20090;-92
2022/04/17 06:18:47;;;;;;;5.68;1.60;;;;;;;10.57;28.29;99498.72;4440093;32;20098;-92
2022/04/17 06:21:13;;;;;;;5.95;1.87;;;;;;;10.19;28.74;99509.88;4426470;32;20166;-92
2022/04/17 06:23:39;;;;;;;5.40;2.00;;;;;;;10.00;28.86;99520.31;4440130;32;20090;-92
2022/04/17 06:26:06;;;;;;;6.15;1.87;;;;;;;10.16;28.81;99502.12;4426444;32;20373;-91
2022/04/17 06:28:32;;;;;;;5.97;1.92;;;;;;;10.37;28.51;99507.44;4426422;32;20179;-92
2022/04/17 06:30:57;;;;;;;5.37;1.50;;;;;;;10.37;28.34;99492.50;4426055;32;20129;-92
2022/04/17 06:33:23;;;;;;;7.15;1.90;;;;;;;10.48;28.48;99513.13;4439927;32;20107;-92
2022/04/17 06:35:48;;;;;;;5.07;1.77;;;;;;;10.68;28.98;99506.13;4440100;32;20085;-92
2022/04/17 06:38:15;;;;;;;6.03;1.83;;;;;;;10.69;28.96;99507.84;4440017;32;20124;-93
2022/04/17 06:40:41;;;;;;;7.62;2.25;;;;;;;10.82;28.19;99506.41;4426406;32;20113;-92
2022/04/17 06:43:08;;;;;;;5.28;1.58;;;;;;;10.91;28.50;99513.03;4440015;32;20097;-92
2022/04/17 06:45:35;;;;;;;6.53;1.70;;;;;;;11.06;28.17;99506.22;4426257;32;20077;-92
2022/04/17 06:48:13;;;;;;;4.90;1.48;;;;;;;11.26;28.10;99494.75;4425962;32;20253;-93
2022/04/17 06:50:39;;;;;;;6.68;1.85;;;;;;;11.28;28.04;99506.09;4440191;32;20178;-92
2022/04/17 06:53:05;;;;;;;4.40;1.50;;;;;;;11.08;28.03;99515.75;4426065;32;20425;-93
2022/04/17 06:55:30;;;;;;;6.72;1.87;;;;;;;10.21;28.26;99528.25;4413188;32;20440;-92
2022/04/17 06:57:55;;;;;;;4.12;1.48;;;;;;;10.56;27.68;99503.09;4439977;32;20092;-93
2022/04/17 07:00:22;;;;;;;5.53;1.75;;;;;;;10.78;27.74;99513.56;4439848;32;20081;-92
2022/04/17 07:02:48;;;;;;;5.35;1.55;;;;;;;10.88;27.97;99514.03;4439924;32;20072;-92
2022/04/17 07:05:14;;;;;;;3.97;1.48;;;;;;;10.87;27.51;99506.19;4425870;32;20085;-91
2022/04/17 07:07:40;;;;;;;5.28;1.73;;;;;;;10.83;27.08;99516.00;4425781;32;20109;-91
2022/04/17 07:10:06;;;;;;;6.80;1.73;;;;;;;10.71;27.20;99525.31;4413125;32;20398;-91
2022/04/17 07:12:31;;;;;;;5.43;1.70;;;;;;;10.46;27.51;99516.75;4424816;32;20098;-91
2022/04/17 07:15:00;;;;;;;4.62;1.70;;;;;;;9.99;28.58;99550.19;4439750;32;20323;-91
2022/04/17 07:17:36;;;;;;;6.28;1.65;;;;;;;10.07;28.06;99530.63;4425965;32;20147;-92
2022/04/17 07:20:06;;;;;;;4.45;1.58;;;;;;;10.38;28.23;99524.97;4425808;32;20465;-92
2022/04/17 07:22:36;;;;;;;5.32;1.52;;;;;;;10.73;27.65;99509.44;4439563;32;20168;-92
2022/04/17 07:25:03;;;;;;;4.37;1.45;;;;;;;10.61;27.61;99522.22;4439579;32;20150;-91
2022/04/17 07:27:34;;;;;;;4.37;1.48;;;;;;;10.59;27.88;99512.66;4425531;32;20101;-93
2022/04/17 07:29:59;;;;;;;6.55;1.85;;;;;;;10.47;28.57;99515.81;4425545;32;20132;-91
2022/04/17 07:32:25;;;;;;;5.60;1.70;;;;;;;10.72;27.79;99524.38;4439457;32;20105;-92
2022/04/17 07:34:50;;;;;;;6.35;2.05;;;;;;;10.65;28.08;99511.53;4439456;32;20113;-91
2022/04/17 07:37:24;;;;;;;6.05;1.60;;;;;;;10.93;27.55;99522.59;4439520;32;20113;-92
2022/04/17 07:39:50;;;;;;;6.18;1.77;;;;;;;10.88;27.62;99513.19;4439710;32;20094;-92
2022/04/17 07:42:19;;;;;;;4.93;1.83;;;;;;;11.09;27.09;99509.59;4425436;32;20433;-92
2022/04/17 07:44:44;;;;;;;5.65;1.42;;;;;;;11.20;27.26;99511.72;4439489;32;20143;-90
2022/04/17 07:47:10;;;;;;;5.80;1.62;;;;;;;11.13;27.59;99515.56;4439518;32;20109;-92
2022/04/17 07:49:35;;;;;;;5.32;1.50;;;;;;;10.87;27.79;99507.03;4425249;32;20097;-92
2022/04/17 07:52:01;;;;;;;4.55;1.50;;;;;;;11.27;28.53;99493.84;4425308;32;20149;-92
2022/04/17 07:54:26;;;;;;;6.32;1.70;;;;;;;11.20;27.10;99494.12;4439162;32;20088;-92
2022/04/17 07:56:52;;;;;;;5.62;1.77;;;;;;;11.25;27.74;99495.69;4439199;32;20097;-92
2022/04/17 07:59:17;;;;;;;6.18;1.90;;;;;;;11.07;27.63;99495.63;4439057;32;20142;-92
2022/04/17 08:01:45;;;;;;;6.32;1.60;;;;;;;11.37;27.13;99481.94;4439109;32;20081;-91
2022/04/17 08:04:10;;;;;;;5.18;1.87;;;;;;;11.47;27.07;99477.91;4438999;32;20081;-91
2022/04/17 08:06:36;;;;;;;4.37;1.48;;;;;;;11.09;27.23;99493.75;4439001;32;20432;-92
2022/04/17 08:09:02;;;;;;;4.15;1.42;;;;;;;11.00;27.49;99486.25;4438991;32;20143;-92
2022/04/17 08:11:28;;;;;;;5.12;1.60;;;;;;;11.08;27.55;99494.66;4424968;32;20125;-92
2022/04/17 08:13:54;;;;;;;6.78;1.80;;;;;;;11.09;27.54;99491.13;4425134;32;20089;-92
2022/04/17 08:16:19;;;;;;;3.87;1.37;;;;;;;11.29;27.03;99482.28;4438722;32;20140;-91
2022/04/17 08:18:45;;;;;;;5.45;1.77;;;;;;;11.36;27.53;99483.72;4438754;32;20108;-91
2022/04/17 08:21:11;;;;;;;5.22;1.83;;;;;;;11.34;26.94;99485.56;4424898;32;20090;-92
2022/04/17 08:23:37;;;;;;;6.10;1.90;;;;;;;11.12;27.67;99493.59;4425943;32;20090;-92
2022/04/17 08:26:06;;;;;;;6.18;1.67;;;;;;;11.33;27.11;99473.31;4441101;32;20124;-92
2022/04/17 08:28:32;;;;;;;5.47;1.83;;;;;;;11.27;27.60;99480.66;4441158;32;20123;-92
2022/04/17 08:30:57;;;;;;;7.47;1.83;;;;;;;11.46;27.87;99478.88;4426999;32;20338;-92
2022/04/17 08:33:24;;;;;;;5.53;1.70;;;;;;;11.58;27.42;99470.34;4427045;32;20094;-92
2022/04/17 08:35:50;;;;;;;6.65;1.98;;;;;;;11.52;27.67;99472.44;4441034;32;20112;-92
2022/04/17 08:38:19;;;;;;;4.82;1.62;;;;;;;11.78;26.41;99455.34;4426985;32;20108;-92
2022/04/17 08:40:45;;;;;;;6.20;2.05;;;;;;;11.86;27.25;99455.84;4441120;32;20502;-92
2022/04/17 08:43:11;;;;;;;5.85;1.67;;;;;;;11.88;27.41;99456.62;4426853;32;20081;-92
2022/04/17 08:45:37;;;;;;;4.85;1.67;;;;;;;12.06;26.67;99454.03;4441097;32;20171;-92
2022/04/17 08:48:03;;;;;;;6.00;1.85;;;;;;;12.25;26.51;99441.59;4426842;32;20358;-92
2022/04/17 08:50:29;;;;;;;4.57;1.70;;;;;;;12.32;27.22;99452.69;4426952;32;20406;-92
2022/04/17 08:52:55;;;;;;;6.40;2.22;;;;;;;12.06;26.52;99462.81;4414149;32;20113;-92
2022/04/17 08:55:21;;;;;;;5.62;1.80;;;;;;;11.96;26.58;99456.28;4427059;32;20101;-92
2022/04/17 08:57:46;;;;;;;5.78;1.70;;;;;;;12.09;26.51;99457.38;4427037;32;20441;-92
2022/04/17 09:00:16;;;;;;;6.28;1.80;;;;;;;12.22;27.27;99454.94;4440939;32;20104;-91
2022/04/17 09:02:42;;;;;;;4.75;1.62;;;;;;;12.08;26.71;99463.56;4427124;32;20146;-91
2022/04/17 09:05:09;;;;;;;5.00;1.60;;;;;;;11.80;26.90;99448.19;4414129;32;20129;-92
2022/04/17 09:07:50;;;;;;;5.57;1.83;;;;;;;12.17;26.71;99442.00;4440900;32;20089;-92
2022/04/17 09:10:24;;;;;;;4.80;1.60;;;;;;;12.33;26.26;99430.63;4440800;32;20093;-92
2022/04/17 09:12:52;;;;;;;5.82;1.80;;;;;;;12.46;26.46;99428.19;4440806;32;20362;-92
2022/04/17 09:15:18;;;;;;;6.05;1.83;;;;;;;12.46;25.97;99431.72;4426826;32;20218;-92
2022/04/17 09:17:43;;;;;;;5.07;1.87;;;;;;;12.50;25.55;99429.78;4426641;32;20109;-92
2022/04/17 09:20:18;;;;;;;6.25;1.85;;;;;;;12.63;26.09;99420.25;4426679;32;20414;-91
2022/04/17 09:22:49;;;;;;;5.87;1.60;;;;;;;12.86;26.02;99424.31;4440704;32;20134;-92
2022/04/17 09:25:14;;;;;;;5.47;1.85;;;;;;;12.95;25.29;99417.69;4440784;32;20093;-92
2022/04/17 09:28:03;;;;;;;5.15;1.60;;;;;;;12.88;25.75;99416.28;4426773;32;20162;-92
2022/04/17 09:30:28;;;;;;;6.12;1.85;;;;;;;13.02;25.54;99419.06;4426835;32;20117;-92
2022/04/17 09:32:55;;;;;;;6.03;1.75;;;;;;;13.06;25.23;99407.37;4440606;32;20097;-91
2022/04/17 09:35:24;;;;;;;4.37;1.55;;;;;;;13.09;25.61;99401.03;4439967;32;20181;-92
2022/04/17 09:37:58;;;;;;;5.65;1.85;;;;;;;13.30;24.60;99389.28;4440567;32;20194;-92
2022/04/17 09:40:25;;;;;;;7.32;2.10;;;;;;;13.29;25.27;99410.50;4426973;32;20148;-91
2022/04/17 09:43:09;;;;;;;5.07;1.87;;;;;;;12.89;25.29;99403.00;4426554;32;20085;-91
2022/04/17 09:45:40;;;;;;;5.75;1.65;;;;;;;12.86;25.22;99389.09;4440640;32;20086;-92
2022/04/17 09:48:05;;;;;;;5.53;1.55;;;;;;;13.01;25.84;99372.38;4424219;32;79059;-92
2022/04/17 09:50:35;;;;;;;4.45;1.52;;;;;;;13.02;25.52;99382.03;4426500;32;20085;-92
2022/04/17 09:53:05;;;;;;;4.47;1.60;;;;;;;13.35;25.37;99387.25;4414072;32;20204;-92
2022/04/17 09:55:33;;;;;;;6.00;1.50;;;;;;;13.48;24.88;99381.25;4427130;32;20105;-91
2022/04/17 09:57:58;;;;;;;5.70;1.77;;;;;;;13.03;25.19;99378.44;4426723;32;20109;-90
2022/04/17 10:00:24;;;;;;;5.65;1.80;;;;;;;13.30;24.76;99362.00;4440466;32;20090;-91
2022/04/17 10:02:50;;;;;;;5.93;2.03;;;;;;;13.13;25.45;99363.78;4413583;32;20133;-91
2022/04/17 10:05:17;;;;;;;6.43;1.80;;;;;;;12.66;25.65;99364.56;4426587;32;20121;-91
2022/04/17 10:07:48;;;;;;;4.33;1.60;;;;;;;12.97;25.21;99365.56;4426327;32;20503;-92
2022/04/17 10:10:15;;;;;;;5.62;1.60;;;;;;;13.31;25.27;99350.50;4426550;32;20100;-91
2022/04/17 10:12:41;;;;;;;5.12;1.60;;;;;;;13.49;24.94;99341.47;4426229;32;20133;-91
2022/04/17 10:15:07;;;;;;;5.70;1.80;;;;;;;13.37;25.03;99358.91;4426562;32;20129;-92
2022/04/17 10:17:34;;;;;;;4.82;1.50;;;;;;;13.23;24.18;99353.53;4426371;32;20105;-91
2022/04/17 10:20:11;;;;;;;5.32;1.60;;;;;;;12.90;24.20;99362.41;4426315;32;20388;-92
2022/04/17 10:22:38;;;;;;;11.07;1.45;;;;;;;13.02;24.52;99345.00;4426470;32;20081;-90
2022/04/17 10:25:07;;;;;;;5.53;1.50;;;;;;;12.45;24.24;99357.81;4426366;32;20113;-90
2022/04/17 10:27:45;;;;;;;4.78;1.40;;;;;;;12.51;24.35;99349.53;4440564;32;20128;-92
2022/04/17 10:30:14;;;;;;;4.87;1.55;;;;;;;12.63;23.75;99350.66;4426658;32;20507;-90
2022/04/17 10:32:51;;;;;;;5.07;1.48;;;;;;;12.52;23.97;99346.81;4440542;32;20090;-90
2022/04/17 10:35:39;;;;;;;4.70;1.50;;;;;;;12.33;24.30;99344.31;4426445;32;20203;-90
2022/04/17 10:38:11;;;;;;;5.25;1.58;;;;;;;12.52;24.74;99336.25;4426020;32;20440;-90
2022/04/17 10:40:37;;;;;;;4.72;1.37;;;;;;;12.70;24.67;99329.09;4440118;32;20119;-90
2022/04/17 10:43:03;;;;;;;2.75;1.17;;;;;;;12.58;22.79;99335.06;4440101;32;20132;-91
2022/04/17 10:45:31;;;;;;;3.50;1.50;;;;;;;12.41;22.67;99328.03;4425974;32;20147;-91
2022/04/17 10:48:09;;;;;;;4.87;1.40;;;;;;;12.69;23.02;99323.91;4425302;32;20113;-91
2022/04/17 10:50:44;;;;;;;4.75;1.40;;;;;;;12.74;23.61;99314.78;4440105;32;20117;-91
2022/04/17 10:53:26;;;;;;;5.82;1.85;;;;;;;12.69;23.59;99316.84;4426101;32;20472;-92
2022/04/17 10:56:20;;;;;;;4.50;1.20;;;;;;;13.00;23.33;99312.50;4439994;32;20180;-91
2022/04/17 10:58:54;;;;;;;4.60;1.55;;;;;;;13.20;23.14;99313.16;4423450;32;20101;-91
2022/04/17 11:01:41;;;;;;;4.50;1.33;;;;;;;13.31;23.04;99306.34;4440071;32;20111;-91
2022/04/17 11:04:22;;;;;;;3.40;1.30;;;;;;;13.07;22.95;99319.12;4439869;32;20086;-92
2022/04/17 11:07:09;;;;;;;3.85;1.50;;;;;;;13.12;23.27;99300.37;4439754;32;20156;-92
2022/04/17 11:09:46;;;;;;;3.25;1.15;;;;;;;13.31;23.30;99306.34;4426923;32;20460;-92
2022/04/17 11:12:17;;;;;;;2.67;1.08;;;;;;;13.60;23.12;99293.22;4426787;32;20114;-91
2022/04/17 11:15:01;;;;;;;4.07;1.30;;;;;;;13.21;23.04;99304.28;4425719;32;20117;-91
2022/04/17 11:17:31;;;;;;;4.37;1.15;;;;;;;13.73;21.95;99290.66;4439757;32;20110;-90
2022/04/17 11:19:58;;;;;;;4.12;1.35;;;;;;;14.03;21.75;99272.09;4439725;32;20101;-91
2022/04/17 11:22:32;;;;;;;3.87;1.15;;;;;;;14.24;21.60;99267.28;4439688;32;20123;-91
2022/04/17 11:24:58;;;;;;;4.03;1.30;;;;;;;14.31;21.99;99262.44;4439740;32;20089;-91
2022/04/17 11:27:32;;;;;;;4.32;1.30;;;;;;;14.34;21.87;99279.00;4439628;32;20137;-91
2022/04/17 11:30:02;;;;;;;4.28;1.15;;;;;;;13.90;22.57;99273.78;4439570;32;20105;-91
2022/04/17 11:32:27;;;;;;;4.80;1.40;;;;;;;14.20;23.01;99263.13;4425599;32;20089;-91
2022/04/17 11:34:53;;;;;;;3.65;1.35;;;;;;;13.60;22.48;99264.09;4439457;32;20111;-91
2022/04/17 11:37:23;;;;;;;3.80;1.40;;;;;;;13.70;23.09;99262.59;4425228;32;20626;-91
2022/04/17 11:39:49;;;;;;;5.22;1.52;;;;;;;13.44;23.08;99281.81;4425530;32;20166;-91
2022/04/17 11:42:15;;;;;;;5.10;1.37;;;;;;;13.32;23.15;99275.44;4439367;32;20089;-91
2022/04/17 11:44:45;;;;;;;2.53;1.12;;;;;;;13.15;23.04;99273.72;4425225;32;20089;-92
2022/04/17 11:47:15;;;;;;;3.08;1.20;;;;;;;13.28;22.84;99282.66;4425420;32;20098;-92